createdAt,value
2023-10-28T00:01:59.283Z,7.80
2023-10-28T00:04:25.785Z,10.00
2023-10-28T00:06:53.176Z,8.93
2023-10-28T00:09:21.234Z,8.88
2023-10-28T00:11:47.917Z,9.50
2023-10-28T00:14:15.602Z,7.35
2023-10-28T00:16:42.085Z,10.50
2023-10-28T00:19:09.086Z,5.60
2023-10-28T00:21:35.969Z,10.25
2023-10-28T00:24:03.158Z,6.07
2023-10-28T00:26:30.702Z,7.55
2023-10-28T00:28:59.590Z,7.10
2023-10-28T00:31:26.418Z,6.68
2023-10-28T00:33:53.983Z,9.40
2023-10-28T00:36:20.893Z,6.30
2023-10-28T00:38:47.810Z,8.07
2023-10-28T00:41:15.149Z,5.72
2023-10-28T00:43:41.661Z,9.32
2023-10-28T00:46:08.763Z,9.05
2023-10-28T00:48:35.741Z,11.13
2023-10-28T00:51:05.071Z,5.38
2023-10-28T00:53:32.157Z,8.25
2023-10-28T00:56:00.667Z,11.20
2023-10-28T00:58:28.786Z,7.45
2023-10-28T01:00:55.561Z,10.45
2023-10-28T01:03:22.315Z,8.13
2023-10-28T01:05:48.948Z,6.50
2023-10-28T01:08:15.456Z,10.05
2023-10-28T01:10:42.153Z,10.38
2023-10-28T01:13:10.222Z,7.03
2023-10-28T01:15:37.179Z,8.40
2023-10-28T01:18:03.957Z,9.30
2023-10-28T01:20:30.514Z,6.65
2023-10-28T01:22:59.991Z,8.38
2023-10-28T01:25:26.821Z,10.63
2023-10-28T01:27:54.434Z,9.02
2023-10-28T01:30:21.040Z,11.45
2023-10-28T01:32:47.890Z,10.40
2023-10-28T01:35:16.076Z,7.15
2023-10-28T01:37:43.688Z,9.68
2023-10-28T01:40:14.679Z,9.85
2023-10-28T01:42:43.148Z,11.73
2023-10-28T01:45:10.960Z,7.57
2023-10-28T01:47:43.042Z,8.80
2023-10-28T01:50:14.250Z,5.75
2023-10-28T01:52:42.232Z,12.43
2023-10-28T01:55:10.821Z,7.38
2023-10-28T01:57:40.110Z,8.77
2023-10-28T02:00:13.381Z,11.25
2023-10-28T02:02:40.739Z,11.95
2023-10-28T02:05:07.928Z,7.20
2023-10-28T02:07:35.666Z,7.00
2023-10-28T02:10:04.736Z,7.82
2023-10-28T02:12:35.269Z,11.05
2023-10-28T02:15:09.802Z,6.80
2023-10-28T02:17:37.091Z,6.45
2023-10-28T02:20:05.247Z,10.40
2023-10-28T02:22:32.765Z,7.97
2023-10-28T02:24:59.367Z,16.65
2023-10-28T02:27:26.345Z,9.65
2023-10-28T02:29:52.948Z,9.40
2023-10-28T02:32:19.571Z,6.90
2023-10-28T02:34:46.176Z,7.45
2023-10-28T02:37:12.696Z,13.38
2023-10-28T02:39:39.250Z,10.10
2023-10-28T02:42:05.961Z,12.77
2023-10-28T02:44:33.159Z,9.07
2023-10-28T02:47:00.518Z,6.40
2023-10-28T02:49:28.595Z,12.55
2023-10-28T02:51:55.137Z,10.30
2023-10-28T02:54:21.874Z,8.90
2023-10-28T02:56:48.458Z,10.20
2023-10-28T02:59:15.057Z,11.13
2023-10-28T03:01:41.676Z,7.93
2023-10-28T03:04:08.498Z,9.60
2023-10-28T03:06:35.131Z,15.27
2023-10-28T03:09:01.816Z,10.50
2023-10-28T03:11:28.482Z,11.90
2023-10-28T03:13:55.899Z,8.00
2023-10-28T03:16:23.193Z,10.02
2023-10-28T03:18:49.774Z,11.63
2023-10-28T03:21:16.524Z,8.15
2023-10-28T03:23:43.842Z,5.68
2023-10-28T03:26:10.467Z,10.88
2023-10-28T03:28:38.183Z,16.23
2023-10-28T03:31:12.566Z,9.80
2023-10-28T03:33:40.321Z,11.65
2023-10-28T03:36:07.397Z,8.65
2023-10-28T03:38:34.423Z,10.80
2023-10-28T03:41:06.867Z,8.10
2023-10-28T03:43:33.396Z,10.63
2023-10-28T03:45:59.971Z,6.70
2023-10-28T03:48:26.564Z,7.57
2023-10-28T03:51:06.815Z,9.73
2023-10-28T03:53:33.432Z,15.48
2023-10-28T03:56:01.331Z,5.63
2023-10-28T03:58:28.126Z,7.15
2023-10-28T04:00:55.312Z,7.75
2023-10-28T04:03:23.055Z,4.40
2023-10-28T04:05:54.595Z,9.73
2023-10-28T04:08:21.191Z,6.70
2023-10-28T04:10:47.933Z,7.18
2023-10-28T04:13:15.193Z,5.93
2023-10-28T04:15:42.381Z,9.00
2023-10-28T04:18:09.166Z,7.38
2023-10-28T04:20:38.635Z,7.18
2023-10-28T04:23:07.500Z,6.70
2023-10-28T04:25:34.544Z,7.13
2023-10-28T04:28:01.229Z,6.03
2023-10-28T04:30:27.831Z,6.63
2023-10-28T04:32:54.391Z,6.82
2023-10-28T04:35:27.908Z,7.80
2023-10-28T04:37:55.814Z,7.22
2023-10-28T04:40:22.775Z,4.85
2023-10-28T04:42:49.278Z,6.70
2023-10-28T04:45:15.853Z,4.07
2023-10-28T04:47:42.965Z,6.97
2023-10-28T04:50:09.975Z,6.65
2023-10-28T04:52:36.606Z,15.25
2023-10-28T04:55:03.394Z,9.18
2023-10-28T04:57:29.874Z,10.27
2023-10-28T04:59:56.368Z,8.18
2023-10-28T05:02:23.780Z,9.02
2023-10-28T05:04:52.579Z,9.00
2023-10-28T05:07:19.185Z,5.18
2023-10-28T05:09:46.664Z,7.88
2023-10-28T05:12:13.343Z,4.30
2023-10-28T05:14:39.909Z,5.65
2023-10-28T05:17:06.830Z,2.85
2023-10-28T05:19:34.054Z,4.10
2023-10-28T05:22:03.755Z,4.60
2023-10-28T05:24:31.081Z,7.72
2023-10-28T05:26:58.590Z,6.32
2023-10-28T05:29:25.307Z,3.05
2023-10-28T05:31:52.031Z,9.38
2023-10-28T05:34:20.427Z,2.80
2023-10-28T05:36:47.047Z,3.80
2023-10-28T05:39:13.663Z,7.20
2023-10-28T05:41:40.525Z,5.00
2023-10-28T05:44:07.043Z,6.93
2023-10-28T05:46:33.867Z,5.78
2023-10-28T05:49:01.655Z,5.13
2023-10-28T05:51:29.173Z,4.75
2023-10-28T05:53:55.868Z,3.60
2023-10-28T05:56:22.493Z,6.13
2023-10-28T05:58:49.368Z,5.60
2023-10-28T06:01:15.881Z,3.10
2023-10-28T06:03:42.540Z,5.65
2023-10-28T06:06:09.877Z,2.53
2023-10-28T06:08:36.477Z,4.70
2023-10-28T06:11:03.099Z,4.65
2023-10-28T06:13:30.089Z,3.33
2023-10-28T06:15:56.638Z,5.68
2023-10-28T06:18:25.769Z,5.10
2023-10-28T06:20:52.897Z,4.70
2023-10-28T06:23:19.431Z,5.50
2023-10-28T06:25:46.006Z,6.70
2023-10-28T06:28:12.603Z,5.72
2023-10-28T06:30:49.486Z,6.95
2023-10-28T06:33:17.022Z,7.10
2023-10-28T06:35:43.686Z,3.58
2023-10-28T06:38:10.281Z,6.75
2023-10-28T06:40:39.905Z,4.03
2023-10-28T06:43:06.444Z,3.55
2023-10-28T06:45:32.907Z,6.28
2023-10-28T06:47:59.425Z,3.90
2023-10-28T06:50:26.136Z,2.85
2023-10-28T06:52:52.739Z,4.07
2023-10-28T06:55:19.783Z,6.85
2023-10-28T06:57:47.446Z,4.43
2023-10-28T07:00:17.872Z,5.55
2023-10-28T07:02:46.266Z,3.30
2023-10-28T07:05:13.143Z,5.13
2023-10-28T07:07:40.299Z,3.55
2023-10-28T07:10:07.983Z,5.50
2023-10-28T07:12:34.653Z,5.07
2023-10-28T07:15:01.955Z,4.85
2023-10-28T07:17:28.933Z,3.50
2023-10-28T07:19:58.811Z,2.97
2023-10-28T07:22:26.902Z,4.10
2023-10-28T07:24:55.276Z,3.72
2023-10-28T07:27:22.290Z,4.03
2023-10-28T07:29:52.500Z,4.28
2023-10-28T07:34:45.645Z,5.60
2023-10-28T07:37:12.255Z,2.30
2023-10-28T07:39:39.996Z,3.05
2023-10-28T07:42:07.162Z,2.25
2023-10-28T07:44:33.671Z,4.78
2023-10-28T07:47:00.541Z,7.20
2023-10-28T07:49:27.117Z,2.85
2023-10-28T07:51:53.631Z,3.72
2023-10-28T07:54:20.088Z,4.97
2023-10-28T07:56:46.589Z,6.22
2023-10-28T07:59:13.389Z,3.72
2023-10-28T08:01:41.089Z,3.47
2023-10-28T08:04:07.883Z,4.07
2023-10-28T08:06:36.109Z,2.72
2023-10-28T08:09:07.609Z,5.00
2023-10-28T08:11:34.372Z,5.20
2023-10-28T08:14:01.952Z,3.92
2023-10-28T08:16:28.705Z,4.93
2023-10-28T08:18:56.086Z,6.53
2023-10-28T08:21:22.927Z,3.08
2023-10-28T08:27:11.037Z,6.38
2023-10-28T08:29:40.181Z,5.68
2023-10-28T08:32:08.229Z,4.40
2023-10-28T08:34:36.169Z,1.90
2023-10-28T08:37:04.203Z,5.18
2023-10-28T08:39:32.602Z,3.97
2023-10-28T08:42:06.193Z,4.72
2023-10-28T08:44:33.876Z,4.60
2023-10-28T08:47:07.610Z,7.85
2023-10-28T08:49:39.920Z,3.08
2023-10-28T08:52:10.373Z,4.13
2023-10-28T08:54:39.250Z,4.10
2023-10-28T08:57:08.300Z,4.43
2023-10-28T08:59:35.940Z,3.40
2023-10-28T09:02:09.378Z,4.95
2023-10-28T09:04:37.214Z,6.63
2023-10-28T09:07:06.665Z,5.20
2023-10-28T09:09:33.410Z,2.70
2023-10-28T09:12:01.245Z,5.18
2023-10-28T09:14:28.062Z,3.13
2023-10-28T09:16:57.397Z,3.00
2023-10-28T09:19:28.914Z,4.25
2023-10-28T09:21:56.416Z,5.55
2023-10-28T09:24:26.159Z,3.92
2023-10-28T09:26:52.751Z,4.13
2023-10-28T09:29:33.849Z,5.20
2023-10-28T09:32:09.248Z,5.60
2023-10-28T09:34:37.026Z,6.32
2023-10-28T09:37:04.221Z,2.95
2023-10-28T09:39:33.990Z,2.38
2023-10-28T09:42:01.785Z,4.60
2023-10-28T09:44:28.544Z,3.47
2023-10-28T09:50:39.301Z,2.78
2023-10-28T09:53:07.258Z,3.80
2023-10-28T09:55:38.148Z,3.45
2023-10-28T09:58:12.350Z,6.97
2023-10-28T10:00:39.476Z,4.05
2023-10-28T10:03:15.049Z,5.30
2023-10-28T10:05:44.500Z,4.43
2023-10-28T10:08:23.338Z,5.13
2023-10-28T10:10:54.377Z,4.50
2023-10-28T10:13:21.028Z,7.00
2023-10-28T10:15:58.193Z,5.40
2023-10-28T10:18:31.903Z,2.90
2023-10-28T10:21:06.201Z,2.70
2023-10-28T10:23:55.774Z,8.27
2023-10-28T10:26:26.709Z,4.15
2023-10-28T10:28:56.280Z,3.95
2023-10-28T10:31:24.676Z,5.93
2023-10-28T10:34:11.756Z,6.47
2023-10-28T10:36:44.281Z,4.50
2023-10-28T10:39:17.352Z,3.50
2023-10-28T10:41:47.866Z,4.93
2023-10-28T10:44:34.683Z,3.70
2023-10-28T10:47:02.754Z,4.85
2023-10-28T10:49:33.072Z,4.15
2023-10-28T10:52:02.143Z,5.00
2023-10-28T10:54:34.990Z,4.97
2023-10-28T10:57:01.991Z,2.83
2023-10-28T10:59:30.076Z,2.97
2023-10-28T11:01:57.905Z,6.75
2023-10-28T11:04:26.577Z,3.53
2023-10-28T11:06:54.106Z,3.50
2023-10-28T11:09:21.398Z,2.40
2023-10-28T11:11:48.783Z,3.38
2023-10-28T11:14:15.873Z,7.13
2023-10-28T11:16:46.620Z,4.25
2023-10-28T11:19:13.209Z,4.85
2023-10-28T11:21:45.351Z,2.03
2023-10-28T11:24:13.412Z,3.53
2023-10-28T11:26:40.976Z,7.30
2023-10-28T11:29:08.413Z,2.75
2023-10-28T11:31:41.215Z,3.55
2023-10-28T11:34:07.899Z,7.95
2023-10-28T11:36:35.112Z,6.28
2023-10-28T11:39:15.452Z,2.95
2023-10-28T11:41:51.885Z,2.40
2023-10-28T11:44:18.508Z,3.17
2023-10-28T11:46:45.257Z,3.22
2023-10-28T11:49:11.825Z,3.97
2023-10-28T11:51:38.420Z,5.75
2023-10-28T11:54:05.443Z,2.63
2023-10-28T11:56:34.299Z,4.70
2023-10-28T11:59:04.677Z,4.05
2023-10-28T12:04:01.021Z,4.80
2023-10-28T12:06:30.686Z,5.43
2023-10-28T12:11:28.814Z,6.70
2023-10-28T12:13:57.344Z,4.97
2023-10-28T12:16:24.821Z,6.80
2023-10-28T12:18:52.679Z,2.10
2023-10-28T12:21:19.581Z,2.58
2023-10-28T12:23:49.902Z,6.82
2023-10-28T12:26:29.130Z,4.22
2023-10-28T12:29:00.951Z,3.10
2023-10-28T12:31:27.512Z,8.70
2023-10-28T12:33:55.585Z,7.60
2023-10-28T12:36:23.359Z,6.38
2023-10-28T12:38:51.391Z,4.80
2023-10-28T12:41:17.966Z,5.32
2023-10-28T12:43:44.503Z,7.63
2023-10-28T12:46:11.895Z,4.95
2023-10-28T12:48:43.154Z,5.35
2023-10-28T12:51:09.825Z,7.38
2023-10-28T12:53:36.407Z,4.97
2023-10-28T12:56:04.101Z,5.85
2023-10-28T12:58:31.792Z,5.15
2023-10-28T13:00:58.246Z,6.28
2023-10-28T13:03:24.973Z,7.30
2023-10-28T13:05:52.001Z,5.45
2023-10-28T13:08:18.541Z,8.20
2023-10-28T13:10:45.229Z,6.50
2023-10-28T13:13:11.713Z,4.15
2023-10-28T13:15:38.933Z,5.53
2023-10-28T13:18:05.627Z,8.50
2023-10-28T13:20:33.338Z,7.30
2023-10-28T13:23:01.681Z,9.25
2023-10-28T13:25:28.276Z,4.20
2023-10-28T13:27:54.789Z,6.50
2023-10-28T13:30:21.443Z,5.78
2023-10-28T13:32:56.060Z,9.35
2023-10-28T13:35:23.883Z,7.03
2023-10-28T13:37:51.185Z,4.60
2023-10-28T13:40:18.387Z,12.52
2023-10-28T13:42:45.036Z,7.43
2023-10-28T13:45:11.822Z,5.82
2023-10-28T13:47:40.560Z,7.55
2023-10-28T13:50:07.997Z,8.23
2023-10-28T13:52:36.391Z,10.32
2023-10-28T13:55:04.684Z,10.27
2023-10-28T13:57:31.991Z,10.43
2023-10-28T13:59:58.704Z,9.85
2023-10-28T14:02:25.446Z,7.38
2023-10-28T14:04:52.183Z,8.38
2023-10-28T14:07:20.151Z,7.55
2023-10-28T14:09:48.128Z,8.57
2023-10-28T14:12:16.235Z,8.93
2023-10-28T14:14:42.743Z,8.13
2023-10-28T14:17:09.273Z,7.32
2023-10-28T14:19:37.217Z,8.60
2023-10-28T14:22:03.988Z,9.10
2023-10-28T14:24:30.733Z,6.53
2023-10-28T14:26:57.434Z,9.25
2023-10-28T14:29:25.021Z,8.52
2023-10-28T14:31:51.777Z,10.80
2023-10-28T14:34:18.922Z,9.40
2023-10-28T14:36:47.490Z,7.93
2023-10-28T14:39:14.116Z,9.00
2023-10-28T14:41:40.628Z,7.90
2023-10-28T14:44:09.989Z,10.73
2023-10-28T14:46:37.036Z,8.10
2023-10-28T14:49:04.100Z,8.65
2023-10-28T14:51:35.012Z,8.68
2023-10-28T14:54:03.975Z,6.55
2023-10-28T14:56:30.973Z,8.43
2023-10-28T14:58:57.732Z,8.18
2023-10-28T15:01:24.593Z,4.65
2023-10-28T15:03:51.840Z,9.70
2023-10-28T15:06:19.208Z,10.32
2023-10-28T15:08:47.632Z,7.57
2023-10-28T15:11:14.241Z,13.02
2023-10-28T15:13:40.960Z,14.48
2023-10-28T15:16:12.723Z,9.82
2023-10-28T15:18:41.585Z,10.68
2023-10-28T15:21:13.266Z,9.20
2023-10-28T15:23:40.432Z,9.48
2023-10-28T15:26:15.654Z,13.38
2023-10-28T15:28:43.638Z,10.43
2023-10-28T15:31:11.516Z,13.00
2023-10-28T15:33:39.311Z,11.60
2023-10-28T15:36:13.203Z,13.30
2023-10-28T15:38:40.745Z,10.20
2023-10-28T15:41:08.080Z,9.40
2023-10-28T15:43:43.085Z,7.40
2023-10-28T15:46:12.555Z,18.02
2023-10-28T15:48:43.011Z,11.95
2023-10-28T15:51:13.832Z,15.70
2023-10-28T15:53:41.429Z,13.82
2023-10-28T15:56:12.815Z,7.80
2023-10-28T15:58:41.848Z,11.50
2023-10-28T16:01:08.651Z,10.98
2023-10-28T16:03:35.276Z,11.43
2023-10-28T16:06:02.575Z,10.82
2023-10-28T16:08:29.288Z,11.40
2023-10-28T16:10:58.451Z,12.02
2023-10-28T16:13:25.034Z,6.40
2023-10-28T16:15:51.954Z,10.65
2023-10-28T16:18:18.659Z,5.95
2023-10-28T16:20:46.593Z,8.20
2023-10-28T16:23:15.336Z,8.45
2023-10-28T16:25:42.550Z,7.78
2023-10-28T16:28:09.369Z,14.45
2023-10-28T16:30:35.840Z,6.72
2023-10-28T16:33:04.722Z,8.80
2023-10-28T16:35:31.380Z,9.60
2023-10-28T16:37:58.941Z,7.88
2023-10-28T16:40:25.416Z,7.22
2023-10-28T16:42:51.991Z,7.28
2023-10-28T16:45:18.881Z,10.90
2023-10-28T16:47:45.605Z,7.53
2023-10-28T16:50:13.021Z,10.57
2023-10-28T16:52:40.159Z,12.85
2023-10-28T16:55:07.163Z,22.40
2023-10-28T16:57:33.705Z,19.45
2023-10-28T17:00:00.310Z,13.77
2023-10-28T17:02:26.956Z,6.75
2023-10-28T17:04:53.501Z,7.32
2023-10-28T17:07:20.131Z,6.88
2023-10-28T17:09:47.719Z,5.22
2023-10-28T17:12:14.405Z,9.60
2023-10-28T17:14:40.941Z,8.10
2023-10-28T17:17:11.825Z,9.88
2023-10-28T17:19:40.417Z,7.80
2023-10-28T17:22:07.315Z,8.02
2023-10-28T17:24:34.929Z,8.20
2023-10-28T17:27:05.560Z,10.93
2023-10-28T17:29:32.946Z,10.63
2023-10-28T17:31:59.912Z,6.43
2023-10-28T17:34:31.003Z,4.68
2023-10-28T17:36:58.726Z,7.10
2023-10-28T17:39:25.333Z,5.35
2023-10-28T17:41:54.067Z,8.85
2023-10-28T17:44:21.364Z,7.25
2023-10-28T17:46:49.453Z,7.78
2023-10-28T17:49:17.894Z,9.15
2023-10-28T17:51:44.518Z,10.32
2023-10-28T17:54:12.241Z,5.97
2023-10-28T17:56:38.902Z,5.88
2023-10-28T17:59:05.590Z,12.05
2023-10-28T18:01:32.149Z,6.78
2023-10-28T18:03:58.997Z,4.35
2023-10-28T18:06:27.469Z,7.65
2023-10-28T18:08:54.347Z,6.10
2023-10-28T18:11:21.619Z,5.38
2023-10-28T18:13:48.339Z,9.93
2023-10-28T18:16:20.007Z,7.05
2023-10-28T18:18:47.768Z,9.65
2023-10-28T18:21:16.915Z,8.85
2023-10-28T18:23:43.982Z,7.10
2023-10-28T18:26:13.484Z,5.78
2023-10-28T18:28:41.222Z,13.35
2023-10-28T18:31:08.047Z,7.10
2023-10-28T18:33:36.489Z,6.35
2023-10-28T18:36:05.230Z,3.08
2023-10-28T18:38:31.817Z,4.82
2023-10-28T18:40:59.532Z,3.33
2023-10-28T18:43:26.328Z,5.75
2023-10-28T18:45:52.920Z,5.05
2023-10-28T18:48:20.478Z,5.43
2023-10-28T18:50:48.529Z,3.22
2023-10-28T18:53:15.426Z,6.97
2023-10-28T18:55:42.296Z,4.53
2023-10-28T18:58:08.866Z,4.07
2023-10-28T19:00:36.082Z,5.22
2023-10-28T19:03:02.901Z,4.85
2023-10-28T19:05:29.607Z,5.68
2023-10-28T19:07:56.085Z,3.30
2023-10-28T19:10:22.682Z,3.72
2023-10-28T19:12:49.318Z,3.88
2023-10-28T19:15:15.833Z,3.30
2023-10-28T19:17:42.430Z,5.30
2023-10-28T19:20:10.979Z,6.03
2023-10-28T19:22:38.434Z,5.43
2023-10-28T19:25:08.177Z,8.57
2023-10-28T19:27:35.010Z,5.18
2023-10-28T19:30:03.858Z,4.15
2023-10-28T19:32:33.935Z,3.60
2023-10-28T19:35:13.727Z,4.05
2023-10-28T19:37:43.363Z,4.47
2023-10-28T19:40:10.363Z,3.95
2023-10-28T19:42:37.312Z,4.05
2023-10-28T19:45:05.774Z,2.85
2023-10-28T19:47:34.939Z,4.28
2023-10-28T19:50:04.433Z,3.08
2023-10-28T19:52:33.527Z,4.55
2023-10-28T19:55:00.733Z,4.35
2023-10-28T19:57:29.961Z,3.97
2023-10-28T19:59:58.649Z,3.80
2023-10-28T20:02:28.299Z,4.30
2023-10-28T20:04:55.063Z,4.13
2023-10-28T20:07:22.156Z,2.17
2023-10-28T20:09:48.864Z,2.28
2023-10-28T20:12:15.481Z,4.40
2023-10-28T20:14:42.158Z,2.08
2023-10-28T20:17:08.857Z,3.92
2023-10-28T20:19:35.402Z,3.22
2023-10-28T20:22:02.479Z,4.03
2023-10-28T20:24:29.042Z,1.45
2023-10-28T20:26:58.711Z,4.75
2023-10-28T20:29:25.240Z,3.33
2023-10-28T20:31:51.889Z,1.77
2023-10-28T20:34:18.564Z,2.40
2023-10-28T20:36:48.048Z,3.47
2023-10-28T20:39:16.907Z,1.55
2023-10-28T20:41:43.902Z,2.25
2023-10-28T20:44:11.245Z,1.90
2023-10-28T20:46:37.802Z,2.67
2023-10-28T20:49:06.898Z,3.63
2023-10-28T20:51:34.221Z,4.22
2023-10-28T20:54:01.057Z,2.80
2023-10-28T20:56:27.678Z,1.85
2023-10-28T20:58:54.222Z,3.75
2023-10-28T21:01:20.833Z,6.40
2023-10-28T21:03:47.553Z,3.25
2023-10-28T21:06:14.133Z,3.33
2023-10-28T21:08:43.114Z,3.85
2023-10-28T21:11:13.884Z,5.43
2023-10-28T21:13:40.388Z,3.15
2023-10-28T21:16:07.336Z,3.15
2023-10-28T21:18:34.267Z,2.78
2023-10-28T21:21:03.496Z,2.03
2023-10-28T21:23:31.899Z,2.15
2023-10-28T21:25:59.168Z,5.85
2023-10-28T21:28:26.502Z,2.65
2023-10-28T21:30:53.639Z,2.83
2023-10-28T21:33:21.153Z,4.28
2023-10-28T21:35:48.239Z,2.20
2023-10-28T21:38:15.176Z,2.00
2023-10-28T21:40:42.483Z,4.30
2023-10-28T21:43:09.537Z,2.50
2023-10-28T21:45:36.052Z,2.50
2023-10-28T21:48:02.674Z,1.95
2023-10-28T21:50:29.295Z,3.92
2023-10-28T21:52:55.904Z,3.35
2023-10-28T21:55:22.790Z,2.40
2023-10-28T21:57:49.358Z,2.92
2023-10-28T22:00:34.969Z,2.88
2023-10-28T22:03:04.289Z,2.38
2023-10-28T22:05:31.213Z,4.22
2023-10-28T22:07:58.611Z,1.45
2023-10-28T22:10:25.151Z,2.65
2023-10-28T22:12:51.772Z,2.22
2023-10-28T22:15:19.235Z,1.80
2023-10-28T22:17:45.992Z,1.77
2023-10-28T22:20:13.820Z,3.08
2023-10-28T22:22:41.033Z,2.92
2023-10-28T22:25:08.413Z,2.58
2023-10-28T22:27:35.855Z,1.70
2023-10-28T22:30:03.537Z,2.17
2023-10-28T22:32:30.222Z,1.65
2023-10-28T22:34:57.008Z,1.92
2023-10-28T22:37:23.507Z,1.25
2023-10-28T22:39:52.535Z,1.20
2023-10-28T22:42:19.131Z,2.35
2023-10-28T22:44:45.634Z,2.08
2023-10-28T22:47:12.242Z,1.35
2023-10-28T22:49:38.752Z,2.28
2023-10-28T22:52:05.314Z,2.20
2023-10-28T22:54:34.774Z,3.47
2023-10-28T22:57:03.470Z,1.00
2023-10-28T22:59:30.025Z,1.52
2023-10-28T23:01:56.544Z,1.05
2023-10-28T23:04:23.043Z,1.67
2023-10-28T23:06:51.758Z,2.00
2023-10-28T23:09:18.389Z,2.20
2023-10-28T23:11:45.618Z,1.05
2023-10-28T23:14:12.561Z,1.48
2023-10-28T23:16:39.326Z,1.63
2023-10-28T23:19:08.135Z,1.70
2023-10-28T23:21:34.910Z,2.25
2023-10-28T23:24:01.664Z,1.35
2023-10-28T23:26:28.240Z,3.50
2023-10-28T23:28:55.771Z,3.25
2023-10-28T23:31:22.701Z,0.80
2023-10-28T23:33:49.997Z,2.15
2023-10-28T23:36:19.529Z,2.38
2023-10-28T23:38:46.560Z,2.25
2023-10-28T23:41:14.714Z,3.75
2023-10-28T23:43:41.144Z,2.80
2023-10-28T23:46:09.058Z,1.40
2023-10-28T23:48:36.498Z,2.40
2023-10-28T23:51:04.196Z,2.85
2023-10-28T23:53:30.940Z,1.95
2023-10-28T23:55:57.599Z,3.28
2023-10-28T23:58:24.103Z,1.55
